sensor_id;sensor_type;location;lat;lon;timestamp;P1;durP1;ratioP1;P2;durP2;ratioP2
11620;SDS011;5866;49.094;11.900;2024-03-23T00:55:51;158.23;;;146.38;;
11620;SDS011;5866;49.094;11.900;2024-03-23T00:58:17;147.40;;;135.82;;
11620;SDS011;5866;49.094;11.900;2024-03-23T01:00:43;152.98;;;141.30;;
11620;SDS011;5866;49.094;11.900;2024-03-23T01:03:10;189.30;;;175.93;;
11620;SDS011;5866;49.094;11.900;2024-03-23T01:05:35;133.23;;;122.25;;
11620;SDS011;5866;49.094;11.900;2024-03-23T01:08:02;162.85;;;149.52;;
11620;SDS011;5866;49.094;11.900;2024-03-23T01:10:29;93.70;;;83.55;;
11620;SDS011;5866;49.094;11.900;2024-03-23T01:12:56;86.68;;;70.55;;
11620;SDS011;5866;49.094;11.900;2024-03-23T01:15:22;94.93;;;83.40;;
11620;SDS011;5866;49.094;11.900;2024-03-23T01:17:49;108.32;;;97.43;;
11620;SDS011;5866;49.094;11.900;2024-03-23T01:20:14;88.60;;;69.38;;
11620;SDS011;5866;49.094;11.900;2024-03-23T01:22:42;90.97;;;76.43;;
11620;SDS011;5866;49.094;11.900;2024-03-23T01:25:07;113.35;;;102.00;;
11620;SDS011;5866;49.094;11.900;2024-03-23T01:27:35;174.68;;;159.57;;
11620;SDS011;5866;49.094;11.900;2024-03-23T01:30:01;182.10;;;167.25;;
11620;SDS011;5866;49.094;11.900;2024-03-23T01:32:28;81.65;;;62.13;;
11620;SDS011;5866;49.094;11.900;2024-03-23T01:34:53;82.03;;;70.72;;
11620;SDS011;5866;49.094;11.900;2024-03-23T01:37:20;89.97;;;78.68;;
11620;SDS011;5866;49.094;11.900;2024-03-23T01:39:46;83.70;;;66.38;;
11620;SDS011;5866;49.094;11.900;2024-03-23T01:42:12;79.82;;;65.20;;
11620;SDS011;5866;49.094;11.900;2024-03-23T01:44:39;77.78;;;69.28;;
11620;SDS011;5866;49.094;11.900;2024-03-23T01:47:06;110.32;;;100.53;;
11620;SDS011;5866;49.094;11.900;2024-03-23T01:49:32;82.88;;;74.10;;
11620;SDS011;5866;49.094;11.900;2024-03-23T01:51:59;71.35;;;63.00;;
11620;SDS011;5866;49.094;11.900;2024-03-23T01:54:25;98.75;;;89.78;;
11620;SDS011;5866;49.094;11.900;2024-03-23T01:56:52;83.38;;;75.18;;
11620;SDS011;5866;49.094;11.900;2024-03-23T01:59:19;74.85;;;65.93;;
11620;SDS011;5866;49.094;11.900;2024-03-23T02:01:47;66.63;;;56.78;;
11620;SDS011;5866;49.094;11.900;2024-03-23T02:04:13;66.05;;;59.00;;
11620;SDS011;5866;49.094;11.900;2024-03-23T02:06:40;65.00;;;56.85;;
11620;SDS011;5866;49.094;11.900;2024-03-23T02:09:05;60.75;;;51.75;;
11620;SDS011;5866;49.094;11.900;2024-03-23T02:11:32;60.60;;;53.60;;
11620;SDS011;5866;49.094;11.900;2024-03-23T02:13:58;79.40;;;71.20;;
11620;SDS011;5866;49.094;11.900;2024-03-23T02:16:24;121.68;;;111.32;;
11620;SDS011;5866;49.094;11.900;2024-03-23T02:18:51;95.68;;;87.65;;
11620;SDS011;5866;49.094;11.900;2024-03-23T02:21:18;79.65;;;71.72;;
11620;SDS011;5866;49.094;11.900;2024-03-23T02:23:45;88.32;;;80.13;;
11620;SDS011;5866;49.094;11.900;2024-03-23T02:26:12;67.25;;;60.53;;
11620;SDS011;5866;49.094;11.900;2024-03-23T02:28:39;65.80;;;59.33;;
11620;SDS011;5866;49.094;11.900;2024-03-23T02:31:06;65.68;;;59.35;;
11620;SDS011;5866;49.094;11.900;2024-03-23T02:33:31;63.80;;;57.40;;
11620;SDS011;5866;49.094;11.900;2024-03-23T02:35:59;72.68;;;66.00;;
11620;SDS011;5866;49.094;11.900;2024-03-23T02:38:25;68.93;;;61.92;;
11620;SDS011;5866;49.094;11.900;2024-03-23T02:40:53;99.20;;;91.10;;
11620;SDS011;5866;49.094;11.900;2024-03-23T02:43:18;62.00;;;56.42;;
11620;SDS011;5866;49.094;11.900;2024-03-23T02:45:45;58.00;;;52.20;;
11620;SDS011;5866;49.094;11.900;2024-03-23T02:48:11;55.88;;;50.95;;
11620;SDS011;5866;49.094;11.900;2024-03-23T02:50:37;39.88;;;35.72;;
11620;SDS011;5866;49.094;11.900;2024-03-23T02:53:03;39.20;;;35.13;;
11620;SDS011;5866;49.094;11.900;2024-03-23T02:55:30;43.17;;;38.83;;
11620;SDS011;5866;49.094;11.900;2024-03-23T02:57:57;49.97;;;45.38;;
11620;SDS011;5866;49.094;11.900;2024-03-23T03:00:27;40.80;;;36.70;;
11620;SDS011;5866;49.094;11.900;2024-03-23T03:02:53;39.72;;;35.80;;
11620;SDS011;5866;49.094;11.900;2024-03-23T03:05:19;33.72;;;30.30;;
11620;SDS011;5866;49.094;11.900;2024-03-23T03:07:45;42.85;;;39.22;;
11620;SDS011;5866;49.094;11.900;2024-03-23T03:10:12;42.80;;;38.90;;
11620;SDS011;5866;49.094;11.900;2024-03-23T03:12:37;49.80;;;45.78;;
11620;SDS011;5866;49.094;11.900;2024-03-23T03:15:06;50.97;;;46.83;;
11620;SDS011;5866;49.094;11.900;2024-03-23T03:17:33;72.57;;;67.63;;
11620;SDS011;5866;49.094;11.900;2024-03-23T03:19:59;64.05;;;59.47;;
11620;SDS011;5866;49.094;11.900;2024-03-23T03:22:25;74.57;;;69.50;;
11620;SDS011;5866;49.094;11.900;2024-03-23T03:24:52;153.57;;;144.63;;
11620;SDS011;5866;49.094;11.900;2024-03-23T03:27:17;263.92;;;249.70;;
11620;SDS011;5866;49.094;11.900;2024-03-23T03:29:44;174.82;;;164.95;;
11620;SDS011;5866;49.094;11.900;2024-03-23T03:32:11;149.98;;;141.30;;
11620;SDS011;5866;49.094;11.900;2024-03-23T03:34:38;365.08;;;344.95;;
11620;SDS011;5866;49.094;11.900;2024-03-23T03:37:04;215.90;;;204.43;;
11620;SDS011;5866;49.094;11.900;2024-03-23T03:39:31;210.90;;;199.65;;
11620;SDS011;5866;49.094;11.900;2024-03-23T03:41:56;176.43;;;166.77;;
11620;SDS011;5866;49.094;11.900;2024-03-23T03:44:23;162.98;;;154.15;;
11620;SDS011;5866;49.094;11.900;2024-03-23T03:46:49;176.13;;;166.52;;
11620;SDS011;5866;49.094;11.900;2024-03-23T03:49:17;195.07;;;184.60;;
11620;SDS011;5866;49.094;11.900;2024-03-23T03:51:42;200.57;;;190.07;;
11620;SDS011;5866;49.094;11.900;2024-03-23T03:54:09;126.38;;;119.03;;
11620;SDS011;5866;49.094;11.900;2024-03-23T03:56:34;116.32;;;109.93;;
11620;SDS011;5866;49.094;11.900;2024-03-23T03:59:01;158.77;;;150.18;;
11620;SDS011;5866;49.094;11.900;2024-03-23T04:01:27;149.38;;;141.07;;
11620;SDS011;5866;49.094;11.900;2024-03-23T04:03:53;190.52;;;180.43;;
11620;SDS011;5866;49.094;11.900;2024-03-23T04:06:20;243.05;;;230.18;;
11620;SDS011;5866;49.094;11.900;2024-03-23T04:08:47;105.30;;;99.22;;
11620;SDS011;5866;49.094;11.900;2024-03-23T04:11:13;97.63;;;92.03;;
11620;SDS011;5866;49.094;11.900;2024-03-23T04:13:40;92.60;;;87.20;;
11620;SDS011;5866;49.094;11.900;2024-03-23T04:16:07;98.57;;;93.00;;
11620;SDS011;5866;49.094;11.900;2024-03-23T04:18:34;84.47;;;79.50;;
11620;SDS011;5866;49.094;11.900;2024-03-23T04:21:00;76.72;;;72.32;;
11620;SDS011;5866;49.094;11.900;2024-03-23T04:23:28;100.35;;;94.65;;
11620;SDS011;5866;49.094;11.900;2024-03-23T04:25:54;127.15;;;120.32;;
11620;SDS011;5866;49.094;11.900;2024-03-23T04:28:20;117.35;;;110.75;;
11620;SDS011;5866;49.094;11.900;2024-03-23T04:30:46;123.65;;;116.93;;
11620;SDS011;5866;49.094;11.900;2024-03-23T04:33:13;111.35;;;105.20;;
11620;SDS011;5866;49.094;11.900;2024-03-23T04:35:38;112.25;;;106.15;;
11620;SDS011;5866;49.094;11.900;2024-03-23T04:38:05;111.53;;;105.38;;
11620;SDS011;5866;49.094;11.900;2024-03-23T04:40:33;136.60;;;129.43;;
11620;SDS011;5866;49.094;11.900;2024-03-23T04:43:00;257.60;;;244.50;;
11620;SDS011;5866;49.094;11.900;2024-03-23T04:45:27;169.52;;;160.45;;
11620;SDS011;5866;49.094;11.900;2024-03-23T04:47:53;200.90;;;190.43;;
11620;SDS011;5866;49.094;11.900;2024-03-23T04:50:20;202.55;;;192.30;;
11620;SDS011;5866;49.094;11.900;2024-03-23T04:52:47;179.60;;;170.30;;
11620;SDS011;5866;49.094;11.900;2024-03-23T04:55:12;173.63;;;164.65;;
11620;SDS011;5866;49.094;11.900;2024-03-23T04:57:41;195.23;;;185.15;;
11620;SDS011;5866;49.094;11.900;2024-03-23T05:00:08;207.77;;;196.70;;
11620;SDS011;5866;49.094;11.900;2024-03-23T05:02:42;196.30;;;186.10;;
11620;SDS011;5866;49.094;11.900;2024-03-23T05:05:10;179.60;;;170.43;;
11620;SDS011;5866;49.094;11.900;2024-03-23T05:07:36;179.75;;;170.52;;
11620;SDS011;5866;49.094;11.900;2024-03-23T05:10:03;232.77;;;221.13;;
11620;SDS011;5866;49.094;11.900;2024-03-23T05:12:29;244.35;;;232.15;;
11620;SDS011;5866;49.094;11.900;2024-03-23T05:14:57;238.07;;;226.27;;
11620;SDS011;5866;49.094;11.900;2024-03-23T05:17:23;220.90;;;209.55;;
11620;SDS011;5866;49.094;11.900;2024-03-23T05:19:50;200.93;;;190.82;;
11620;SDS011;5866;49.094;11.900;2024-03-23T05:22:15;162.38;;;153.95;;
11620;SDS011;5866;49.094;11.900;2024-03-23T05:24:44;170.30;;;161.43;;
11620;SDS011;5866;49.094;11.900;2024-03-23T05:27:10;157.98;;;149.80;;
11620;SDS011;5866;49.094;11.900;2024-03-23T05:29:37;154.38;;;146.27;;
11620;SDS011;5866;49.094;11.900;2024-03-23T05:32:04;118.75;;;112.55;;
11620;SDS011;5866;49.094;11.900;2024-03-23T05:34:31;123.78;;;117.22;;
11620;SDS011;5866;49.094;11.900;2024-03-23T05:36:56;107.38;;;101.63;;
11620;SDS011;5866;49.094;11.900;2024-03-23T05:39:23;119.85;;;113.60;;
11620;SDS011;5866;49.094;11.900;2024-03-23T05:41:49;123.65;;;117.25;;
11620;SDS011;5866;49.094;11.900;2024-03-23T05:44:16;111.68;;;105.78;;
11620;SDS011;5866;49.094;11.900;2024-03-23T05:46:41;112.80;;;106.68;;
11620;SDS011;5866;49.094;11.900;2024-03-23T05:49:15;106.90;;;101.15;;
11620;SDS011;5866;49.094;11.900;2024-03-23T05:51:41;121.85;;;115.40;;
11620;SDS011;5866;49.094;11.900;2024-03-23T05:54:07;116.00;;;109.85;;
11620;SDS011;5866;49.094;11.900;2024-03-23T05:56:33;112.40;;;106.35;;
11620;SDS011;5866;49.094;11.900;2024-03-23T05:59:00;123.15;;;116.70;;
11620;SDS011;5866;49.094;11.900;2024-03-23T06:01:25;122.40;;;116.00;;
11620;SDS011;5866;49.094;11.900;2024-03-23T06:03:54;108.10;;;102.45;;
11620;SDS011;5866;49.094;11.900;2024-03-23T06:06:21;90.32;;;85.57;;
11620;SDS011;5866;49.094;11.900;2024-03-23T06:08:47;63.30;;;59.78;;
11620;SDS011;5866;49.094;11.900;2024-03-23T06:11:13;46.47;;;43.88;;
11620;SDS011;5866;49.094;11.900;2024-03-23T06:13:40;37.15;;;34.95;;
11620;SDS011;5866;49.094;11.900;2024-03-23T06:16:05;34.72;;;32.63;;
11620;SDS011;5866;49.094;11.900;2024-03-23T06:18:32;32.13;;;30.42;;
11620;SDS011;5866;49.094;11.900;2024-03-23T06:20:58;36.55;;;34.40;;
11620;SDS011;5866;49.094;11.900;2024-03-23T06:23:26;36.67;;;34.55;;
11620;SDS011;5866;49.094;11.900;2024-03-23T06:25:51;33.65;;;31.52;;
11620;SDS011;5866;49.094;11.900;2024-03-23T06:28:18;43.70;;;41.05;;
11620;SDS011;5866;49.094;11.900;2024-03-23T06:30:46;57.38;;;54.33;;
11620;SDS011;5866;49.094;11.900;2024-03-23T06:33:11;47.47;;;44.90;;
11620;SDS011;5866;49.094;11.900;2024-03-23T06:35:38;17.95;;;16.88;;
11620;SDS011;5866;49.094;11.900;2024-03-23T06:38:04;15.57;;;14.52;;
11620;SDS011;5866;49.094;11.900;2024-03-23T06:40:32;15.57;;;14.40;;
11620;SDS011;5866;49.094;11.900;2024-03-23T06:42:57;37.40;;;35.38;;
11620;SDS011;5866;49.094;11.900;2024-03-23T06:45:24;37.05;;;34.90;;
11620;SDS011;5866;49.094;11.900;2024-03-23T06:47:50;29.10;;;27.55;;
11620;SDS011;5866;49.094;11.900;2024-03-23T06:50:17;39.42;;;37.15;;
11620;SDS011;5866;49.094;11.900;2024-03-23T06:52:43;44.25;;;41.63;;
11620;SDS011;5866;49.094;11.900;2024-03-23T06:55:09;30.60;;;28.70;;
11620;SDS011;5866;49.094;11.900;2024-03-23T06:57:36;32.80;;;30.83;;
11620;SDS011;5866;49.094;11.900;2024-03-23T07:00:03;13.15;;;12.20;;
11620;SDS011;5866;49.094;11.900;2024-03-23T07:02:30;29.77;;;28.17;;
11620;SDS011;5866;49.094;11.900;2024-03-23T07:04:56;11.60;;;10.80;;
11620;SDS011;5866;49.094;11.900;2024-03-23T07:07:22;10.82;;;10.13;;
11620;SDS011;5866;49.094;11.900;2024-03-23T07:09:49;18.88;;;17.65;;
11620;SDS011;5866;49.094;11.900;2024-03-23T07:12:14;19.58;;;18.45;;
11620;SDS011;5866;49.094;11.900;2024-03-23T07:14:42;13.23;;;12.40;;
11620;SDS011;5866;49.094;11.900;2024-03-23T07:17:08;54.15;;;51.17;;
11620;SDS011;5866;49.094;11.900;2024-03-23T07:19:35;70.85;;;67.10;;
11620;SDS011;5866;49.094;11.900;2024-03-23T07:22:00;61.80;;;58.40;;
11620;SDS011;5866;49.094;11.900;2024-03-23T07:24:27;60.17;;;56.88;;
11620;SDS011;5866;49.094;11.900;2024-03-23T07:26:56;75.70;;;71.65;;
11620;SDS011;5866;49.094;11.900;2024-03-23T07:29:23;75.85;;;71.68;;
11620;SDS011;5866;49.094;11.900;2024-03-23T07:31:51;37.38;;;35.28;;
11620;SDS011;5866;49.094;11.900;2024-03-23T07:34:17;41.13;;;38.90;;
11620;SDS011;5866;49.094;11.900;2024-03-23T07:36:43;54.67;;;51.50;;
11620;SDS011;5866;49.094;11.900;2024-03-23T07:39:09;126.18;;;116.90;;
11620;SDS011;5866;49.094;11.900;2024-03-23T07:41:36;83.78;;;79.05;;
11620;SDS011;5866;49.094;11.900;2024-03-23T07:44:01;64.85;;;61.15;;
11620;SDS011;5866;49.094;11.900;2024-03-23T07:46:28;73.47;;;69.22;;
11620;SDS011;5866;49.094;11.900;2024-03-23T07:48:55;232.15;;;211.70;;
11620;SDS011;5866;49.094;11.900;2024-03-23T07:51:22;297.55;;;270.55;;
11620;SDS011;5866;49.094;11.900;2024-03-23T07:53:48;183.98;;;168.05;;
11620;SDS011;5866;49.094;11.900;2024-03-23T07:56:15;77.93;;;72.93;;
11620;SDS011;5866;49.094;11.900;2024-03-23T07:58:43;74.20;;;69.57;;
11620;SDS011;5866;49.094;11.900;2024-03-23T08:01:11;64.63;;;60.55;;
11620;SDS011;5866;49.094;11.900;2024-03-23T08:03:40;28.67;;;26.98;;
11620;SDS011;5866;49.094;11.900;2024-03-23T08:06:08;53.53;;;49.45;;
11620;SDS011;5866;49.094;11.900;2024-03-23T08:08:36;88.05;;;83.05;;
11620;SDS011;5866;49.094;11.900;2024-03-23T08:11:02;34.72;;;32.63;;
11620;SDS011;5866;49.094;11.900;2024-03-23T08:13:29;115.40;;;109.28;;
11620;SDS011;5866;49.094;11.900;2024-03-23T08:15:58;132.25;;;125.00;;
11620;SDS011;5866;49.094;11.900;2024-03-23T08:18:26;164.98;;;155.43;;
11620;SDS011;5866;49.094;11.900;2024-03-23T08:20:55;332.50;;;314.35;;
11620;SDS011;5866;49.094;11.900;2024-03-23T08:23:24;293.90;;;278.33;;
11620;SDS011;5866;49.094;11.900;2024-03-23T08:25:51;338.13;;;319.75;;
11620;SDS011;5866;49.094;11.900;2024-03-23T08:28:17;254.10;;;241.27;;
11620;SDS011;5866;49.094;11.900;2024-03-23T08:30:43;272.02;;;258.08;;
11620;SDS011;5866;49.094;11.900;2024-03-23T08:33:10;273.67;;;259.65;;
11620;SDS011;5866;49.094;11.900;2024-03-23T08:35:35;244.23;;;231.95;;
11620;SDS011;5866;49.094;11.900;2024-03-23T08:38:02;227.27;;;215.75;;
11620;SDS011;5866;49.094;11.900;2024-03-23T08:40:29;277.17;;;261.67;;
11620;SDS011;5866;49.094;11.900;2024-03-23T08:42:56;249.77;;;236.60;;
11620;SDS011;5866;49.094;11.900;2024-03-23T08:45:22;245.68;;;233.10;;
11620;SDS011;5866;49.094;11.900;2024-03-23T08:47:48;265.73;;;251.73;;
11620;SDS011;5866;49.094;11.900;2024-03-23T08:50:14;306.05;;;288.77;;
11620;SDS011;5866;49.094;11.900;2024-03-23T08:52:41;259.27;;;245.13;;
11620;SDS011;5866;49.094;11.900;2024-03-23T08:55:07;417.65;;;392.15;;
11620;SDS011;5866;49.094;11.900;2024-03-23T08:57:36;222.43;;;210.23;;
11620;SDS011;5866;49.094;11.900;2024-03-23T09:00:02;94.35;;;89.05;;
11620;SDS011;5866;49.094;11.900;2024-03-23T09:02:28;198.15;;;185.85;;
11620;SDS011;5866;49.094;11.900;2024-03-23T09:04:54;108.45;;;102.70;;
11620;SDS011;5866;49.094;11.900;2024-03-23T09:07:21;93.68;;;88.60;;
11620;SDS011;5866;49.094;11.900;2024-03-23T09:09:47;66.80;;;63.10;;
11620;SDS011;5866;49.094;11.900;2024-03-23T09:12:13;67.30;;;62.88;;
11620;SDS011;5866;49.094;11.900;2024-03-23T09:14:40;472.00;;;434.95;;
11620;SDS011;5866;49.094;11.900;2024-03-23T09:17:07;226.13;;;214.05;;
11620;SDS011;5866;49.094;11.900;2024-03-23T09:19:33;234.25;;;222.30;;
11620;SDS011;5866;49.094;11.900;2024-03-23T09:22:00;249.15;;;235.23;;
11620;SDS011;5866;49.094;11.900;2024-03-23T09:24:25;174.52;;;164.20;;
11620;SDS011;5866;49.094;11.900;2024-03-23T09:26:52;289.45;;;266.77;;
11620;SDS011;5866;49.094;11.900;2024-03-23T09:29:18;368.95;;;340.40;;
11620;SDS011;5866;49.094;11.900;2024-03-23T09:31:46;149.05;;;141.10;;
11620;SDS011;5866;49.094;11.900;2024-03-23T09:34:11;202.25;;;190.93;;
11620;SDS011;5866;49.094;11.900;2024-03-23T09:36:38;160.40;;;151.18;;
11620;SDS011;5866;49.094;11.900;2024-03-23T09:39:03;194.77;;;181.95;;
11620;SDS011;5866;49.094;11.900;2024-03-23T09:41:30;77.88;;;73.40;;
11620;SDS011;5866;49.094;11.900;2024-03-23T09:43:56;138.55;;;129.77;;
11620;SDS011;5866;49.094;11.900;2024-03-23T09:46:23;153.77;;;145.20;;
11620;SDS011;5866;49.094;11.900;2024-03-23T09:48:50;159.65;;;151.07;;
11620;SDS011;5866;49.094;11.900;2024-03-23T09:51:16;132.23;;;123.82;;
11620;SDS011;5866;49.094;11.900;2024-03-23T09:53:42;141.25;;;133.70;;
11620;SDS011;5866;49.094;11.900;2024-03-23T09:56:09;332.05;;;306.70;;
11620;SDS011;5866;49.094;11.900;2024-03-23T09:58:34;153.20;;;143.30;;
11620;SDS011;5866;49.094;11.900;2024-03-23T10:01:01;79.65;;;75.00;;
11620;SDS011;5866;49.094;11.900;2024-03-23T10:03:28;108.40;;;102.07;;
11620;SDS011;5866;49.094;11.900;2024-03-23T10:06:03;119.32;;;112.20;;
11620;SDS011;5866;49.094;11.900;2024-03-23T10:08:30;87.60;;;82.15;;
11620;SDS011;5866;49.094;11.900;2024-03-23T10:10:58;195.35;;;182.45;;
11620;SDS011;5866;49.094;11.900;2024-03-23T10:13:39;31.95;;;30.05;;
11620;SDS011;5866;49.094;11.900;2024-03-23T10:16:07;36.78;;;34.47;;
11620;SDS011;5866;49.094;11.900;2024-03-23T10:18:36;7.75;;;7.35;;
11620;SDS011;5866;49.094;11.900;2024-03-23T10:21:08;96.28;;;90.38;;
11620;SDS011;5866;49.094;11.900;2024-03-23T10:23:36;338.23;;;309.45;;
11620;SDS011;5866;49.094;11.900;2024-03-23T10:26:12;6.75;;;6.40;;
11620;SDS011;5866;49.094;11.900;2024-03-23T10:28:50;6.13;;;5.80;;
11620;SDS011;5866;49.094;11.900;2024-03-23T10:31:17;51.42;;;48.03;;
11620;SDS011;5866;49.094;11.900;2024-03-23T10:33:44;28.42;;;26.75;;
11620;SDS011;5866;49.094;11.900;2024-03-23T10:36:12;5.90;;;5.60;;
11620;SDS011;5866;49.094;11.900;2024-03-23T10:38:39;4.45;;;4.22;;
11620;SDS011;5866;49.094;11.900;2024-03-23T10:41:06;3.40;;;3.20;;
11620;SDS011;5866;49.094;11.900;2024-03-23T10:43:34;9.35;;;8.77;;
11620;SDS011;5866;49.094;11.900;2024-03-23T10:46:01;10.23;;;9.65;;
11620;SDS011;5866;49.094;11.900;2024-03-23T10:48:28;3.85;;;3.55;;
11620;SDS011;5866;49.094;11.900;2024-03-23T10:50:54;11.88;;;11.20;;
11620;SDS011;5866;49.094;11.900;2024-03-23T10:53:22;37.47;;;35.35;;
11620;SDS011;5866;49.094;11.900;2024-03-23T10:55:51;46.80;;;43.80;;
11620;SDS011;5866;49.094;11.900;2024-03-23T10:58:18;104.30;;;97.22;;
11620;SDS011;5866;49.094;11.900;2024-03-23T11:00:49;49.78;;;46.72;;
11620;SDS011;5866;49.094;11.900;2024-03-23T11:03:29;8.70;;;8.23;;
11620;SDS011;5866;49.094;11.900;2024-03-23T11:05:55;38.25;;;35.75;;
11620;SDS011;5866;49.094;11.900;2024-03-23T11:08:31;4.72;;;4.50;;
11620;SDS011;5866;49.094;11.900;2024-03-23T11:13:57;45.53;;;42.60;;
11620;SDS011;5866;49.094;11.900;2024-03-23T11:16:23;4.75;;;4.45;;
11620;SDS011;5866;49.094;11.900;2024-03-23T11:18:53;5.15;;;4.85;;
11620;SDS011;5866;49.094;11.900;2024-03-23T11:24:21;7.18;;;6.78;;
11620;SDS011;5866;49.094;11.900;2024-03-23T11:26:47;7.43;;;6.93;;
11620;SDS011;5866;49.094;11.900;2024-03-23T11:29:15;3.08;;;2.90;;
11620;SDS011;5866;49.094;11.900;2024-03-23T11:31:45;3.95;;;3.75;;
11620;SDS011;5866;49.094;11.900;2024-03-23T11:34:12;7.07;;;6.68;;
11620;SDS011;5866;49.094;11.900;2024-03-23T11:36:40;10.30;;;9.77;;
11620;SDS011;5866;49.094;11.900;2024-03-23T11:39:13;2.75;;;2.65;;
11620;SDS011;5866;49.094;11.900;2024-03-23T11:41:49;15.23;;;14.25;;
11620;SDS011;5866;49.094;11.900;2024-03-23T11:44:17;12.57;;;11.88;;
11620;SDS011;5866;49.094;11.900;2024-03-23T11:46:43;5.75;;;5.45;;
11620;SDS011;5866;49.094;11.900;2024-03-23T11:49:19;8.35;;;7.93;;
11620;SDS011;5866;49.094;11.900;2024-03-23T11:51:48;31.55;;;29.65;;
11620;SDS011;5866;49.094;11.900;2024-03-23T11:54:15;10.73;;;10.02;;
11620;SDS011;5866;49.094;11.900;2024-03-23T11:56:54;35.90;;;33.80;;
11620;SDS011;5866;49.094;11.900;2024-03-23T11:59:32;13.50;;;12.67;;
11620;SDS011;5866;49.094;11.900;2024-03-23T12:01:58;25.42;;;23.75;;
11620;SDS011;5866;49.094;11.900;2024-03-23T12:04:25;7.37;;;6.90;;
11620;SDS011;5866;49.094;11.900;2024-03-23T12:07:06;4.50;;;4.20;;
11620;SDS011;5866;49.094;11.900;2024-03-23T12:09:35;4.15;;;3.85;;
11620;SDS011;5866;49.094;11.900;2024-03-23T12:12:06;4.70;;;4.38;;
11620;SDS011;5866;49.094;11.900;2024-03-23T12:14:37;12.20;;;11.43;;
11620;SDS011;5866;49.094;11.900;2024-03-23T12:17:09;6.65;;;6.05;;
11620;SDS011;5866;49.094;11.900;2024-03-23T12:19:37;3.80;;;3.55;;
11620;SDS011;5866;49.094;11.900;2024-03-23T12:22:03;4.03;;;3.67;;
11620;SDS011;5866;49.094;11.900;2024-03-23T12:24:30;5.78;;;5.40;;
11620;SDS011;5866;49.094;11.900;2024-03-23T12:26:59;3.50;;;3.30;;
11620;SDS011;5866;49.094;11.900;2024-03-23T12:29:28;6.88;;;6.47;;
11620;SDS011;5866;49.094;11.900;2024-03-23T12:31:55;4.78;;;3.95;;
11620;SDS011;5866;49.094;11.900;2024-03-23T12:34:22;3.60;;;2.90;;
11620;SDS011;5866;49.094;11.900;2024-03-23T12:36:47;9.38;;;8.88;;
11620;SDS011;5866;49.094;11.900;2024-03-23T12:39:14;3.35;;;3.05;;
11620;SDS011;5866;49.094;11.900;2024-03-23T12:41:40;8.48;;;7.97;;
11620;SDS011;5866;49.094;11.900;2024-03-23T12:44:06;8.43;;;7.95;;
11620;SDS011;5866;49.094;11.900;2024-03-23T12:46:35;3.88;;;3.20;;
11620;SDS011;5866;49.094;11.900;2024-03-23T12:49:01;3.60;;;3.30;;
11620;SDS011;5866;49.094;11.900;2024-03-23T12:51:27;3.30;;;3.10;;
11620;SDS011;5866;49.094;11.900;2024-03-23T12:53:53;3.65;;;3.28;;
11620;SDS011;5866;49.094;11.900;2024-03-23T12:56:19;7.70;;;7.13;;
11620;SDS011;5866;49.094;11.900;2024-03-23T12:58:46;4.50;;;3.25;;
11620;SDS011;5866;49.094;11.900;2024-03-23T13:01:15;4.75;;;3.15;;
11620;SDS011;5866;49.094;11.900;2024-03-23T13:03:43;3.78;;;3.35;;
11620;SDS011;5866;49.094;11.900;2024-03-23T13:06:12;3.22;;;3.03;;
11620;SDS011;5866;49.094;11.900;2024-03-23T13:08:38;3.55;;;3.30;;
11620;SDS011;5866;49.094;11.900;2024-03-23T13:11:05;3.47;;;3.17;;
11620;SDS011;5866;49.094;11.900;2024-03-23T13:13:31;4.45;;;3.50;;
11620;SDS011;5866;49.094;11.900;2024-03-23T13:15:58;3.72;;;3.05;;
11620;SDS011;5866;49.094;11.900;2024-03-23T13:18:24;6.50;;;4.80;;
11620;SDS011;5866;49.094;11.900;2024-03-23T13:20:52;4.05;;;3.53;;
11620;SDS011;5866;49.094;11.900;2024-03-23T13:23:18;4.35;;;4.05;;
11620;SDS011;5866;49.094;11.900;2024-03-23T13:25:49;4.85;;;4.38;;
11620;SDS011;5866;49.094;11.900;2024-03-23T13:28:15;4.47;;;3.80;;
11620;SDS011;5866;49.094;11.900;2024-03-23T13:30:49;5.40;;;4.60;;
11620;SDS011;5866;49.094;11.900;2024-03-23T13:33:15;6.82;;;6.22;;
11620;SDS011;5866;49.094;11.900;2024-03-23T13:35:48;12.35;;;11.63;;
11620;SDS011;5866;49.094;11.900;2024-03-23T13:38:16;6.57;;;6.25;;
11620;SDS011;5866;49.094;11.900;2024-03-23T13:40:52;5.15;;;4.55;;
11620;SDS011;5866;49.094;11.900;2024-03-23T13:43:19;5.28;;;3.50;;
11620;SDS011;5866;49.094;11.900;2024-03-23T13:45:46;4.05;;;3.28;;
11620;SDS011;5866;49.094;11.900;2024-03-23T13:48:13;6.10;;;3.00;;
11620;SDS011;5866;49.094;11.900;2024-03-23T13:50:39;8.23;;;4.22;;
11620;SDS011;5866;49.094;11.900;2024-03-23T13:53:05;5.60;;;3.53;;
11620;SDS011;5866;49.094;11.900;2024-03-23T13:55:33;3.40;;;3.10;;
11620;SDS011;5866;49.094;11.900;2024-03-23T13:57:59;4.40;;;3.08;;
11620;SDS011;5866;49.094;11.900;2024-03-23T14:00:25;3.05;;;2.80;;
11620;SDS011;5866;49.094;11.900;2024-03-23T14:02:52;4.05;;;3.20;;
11620;SDS011;5866;49.094;11.900;2024-03-23T14:05:17;3.20;;;2.85;;
11620;SDS011;5866;49.094;11.900;2024-03-23T14:07:44;4.95;;;4.00;;
11620;SDS011;5866;49.094;11.900;2024-03-23T14:10:10;7.90;;;5.03;;
11620;SDS011;5866;49.094;11.900;2024-03-23T14:12:38;5.03;;;3.10;;
11620;SDS011;5866;49.094;11.900;2024-03-23T14:15:05;6.80;;;4.65;;
11620;SDS011;5866;49.094;11.900;2024-03-23T14:17:32;5.90;;;2.95;;
11620;SDS011;5866;49.094;11.900;2024-03-23T14:19:58;6.25;;;3.60;;
11620;SDS011;5866;49.094;11.900;2024-03-23T14:22:26;4.80;;;3.30;;
11620;SDS011;5866;49.094;11.900;2024-03-23T14:24:52;6.60;;;3.58;;
11620;SDS011;5866;49.094;11.900;2024-03-23T14:27:19;6.43;;;4.18;;
11620;SDS011;5866;49.094;11.900;2024-03-23T14:29:46;6.22;;;3.58;;
11620;SDS011;5866;49.094;11.900;2024-03-23T14:32:16;3.50;;;3.20;;
11620;SDS011;5866;49.094;11.900;2024-03-23T14:34:42;5.28;;;3.30;;
11620;SDS011;5866;49.094;11.900;2024-03-23T14:37:09;3.35;;;2.92;;
11620;SDS011;5866;49.094;11.900;2024-03-23T14:39:34;5.53;;;2.97;;
11620;SDS011;5866;49.094;11.900;2024-03-23T14:42:01;5.63;;;3.65;;
11620;SDS011;5866;49.094;11.900;2024-03-23T14:44:27;4.60;;;3.40;;
11620;SDS011;5866;49.094;11.900;2024-03-23T14:46:55;4.43;;;2.92;;
11620;SDS011;5866;49.094;11.900;2024-03-23T14:49:21;3.95;;;3.03;;
11620;SDS011;5866;49.094;11.900;2024-03-23T14:51:48;3.05;;;2.80;;
11620;SDS011;5866;49.094;11.900;2024-03-23T14:54:15;6.68;;;3.33;;
11620;SDS011;5866;49.094;11.900;2024-03-23T14:56:41;4.32;;;3.55;;
11620;SDS011;5866;49.094;11.900;2024-03-23T14:59:07;6.55;;;3.45;;
11620;SDS011;5866;49.094;11.900;2024-03-23T15:01:34;3.45;;;3.05;;
11620;SDS011;5866;49.094;11.900;2024-03-23T15:04:01;4.57;;;3.00;;
11620;SDS011;5866;49.094;11.900;2024-03-23T15:06:29;4.75;;;4.45;;
11620;SDS011;5866;49.094;11.900;2024-03-23T15:08:54;4.30;;;3.13;;
11620;SDS011;5866;49.094;11.900;2024-03-23T15:11:21;4.40;;;3.00;;
11620;SDS011;5866;49.094;11.900;2024-03-23T15:13:49;3.38;;;2.80;;
11620;SDS011;5866;49.094;11.900;2024-03-23T15:16:16;5.25;;;3.58;;
11620;SDS011;5866;49.094;11.900;2024-03-23T15:18:42;4.40;;;2.70;;
11620;SDS011;5866;49.094;11.900;2024-03-23T15:21:10;7.20;;;2.85;;